createdAt,value
2019-03-18T00:02:08.630Z,1.97
2019-03-18T00:04:39.908Z,1.83
2019-03-18T00:07:11.213Z,2.53
2019-03-18T00:09:42.527Z,3.50
2019-03-18T00:12:13.790Z,1.77
2019-03-18T00:14:45.087Z,2.13
2019-03-18T00:17:16.363Z,3.50
2019-03-18T00:19:47.662Z,3.07
2019-03-18T00:22:18.958Z,2.07
2019-03-18T00:24:50.263Z,2.20
2019-03-18T00:27:21.555Z,2.40
2019-03-18T00:29:52.812Z,2.53
2019-03-18T00:32:24.150Z,2.53
2019-03-18T00:34:55.560Z,3.03
2019-03-18T00:37:26.836Z,2.00
2019-03-18T00:39:58.146Z,3.37
2019-03-18T00:42:29.432Z,3.20
2019-03-18T00:45:13.795Z,2.10
2019-03-18T00:47:33.712Z,2.27
2019-03-18T00:50:05.839Z,2.83
2019-03-18T00:52:37.107Z,3.60
2019-03-18T00:55:08.595Z,4.60
2019-03-18T00:57:39.880Z,2.17
2019-03-18T01:00:11.489Z,3.37
2019-03-18T01:02:42.817Z,4.90
2019-03-18T01:05:14.420Z,3.07
2019-03-18T01:07:45.935Z,2.37
2019-03-18T01:10:17.298Z,2.67
2019-03-18T01:12:48.591Z,7.37
2019-03-18T01:15:27.965Z,3.33
2019-03-18T01:17:52.922Z,4.60
2019-03-18T01:20:24.182Z,4.50
2019-03-18T01:22:58.271Z,4.27
2019-03-18T01:25:29.572Z,3.60
2019-03-18T01:28:00.827Z,4.47
2019-03-18T01:30:32.120Z,4.00
2019-03-18T01:33:03.436Z,3.93
2019-03-18T01:35:34.799Z,4.33
2019-03-18T01:38:06.075Z,4.90
2019-03-18T01:40:37.302Z,4.50
2019-03-18T01:43:08.652Z,4.47
2019-03-18T01:45:41.153Z,3.77
2019-03-18T01:48:12.585Z,4.00
2019-03-18T01:50:43.850Z,4.33
2019-03-18T01:53:15.144Z,4.07
2019-03-18T01:55:46.439Z,3.90
2019-03-18T01:58:17.727Z,4.83
2019-03-18T02:00:49.060Z,3.57
2019-03-18T02:03:20.423Z,5.53
2019-03-18T02:05:51.730Z,5.73
2019-03-18T02:08:22.991Z,4.70
2019-03-18T02:10:54.291Z,4.50
2019-03-18T02:13:25.601Z,4.70
2019-03-18T02:15:56.913Z,5.17
2019-03-18T02:18:28.204Z,4.87
2019-03-18T02:20:59.472Z,4.17
2019-03-18T02:23:30.762Z,5.80
2019-03-18T02:26:02.037Z,6.17
2019-03-18T02:28:33.339Z,5.17
2019-03-18T02:31:04.605Z,3.83
2019-03-18T02:33:35.938Z,7.17
2019-03-18T02:36:07.230Z,6.53
2019-03-18T02:38:38.480Z,4.17
2019-03-18T02:41:09.775Z,6.93
2019-03-18T02:43:41.118Z,8.27
2019-03-18T02:46:12.400Z,6.93
2019-03-18T02:48:43.658Z,3.83
2019-03-18T02:51:14.953Z,5.60
2019-03-18T02:53:46.238Z,5.63
2019-03-18T02:56:17.506Z,4.77
2019-03-18T02:58:48.759Z,4.87
2019-03-18T03:01:20.055Z,4.73
2019-03-18T03:03:51.313Z,5.93
2019-03-18T03:06:22.612Z,5.37
2019-03-18T03:08:53.972Z,5.03
2019-03-18T03:11:25.251Z,7.93
2019-03-18T03:13:56.665Z,4.33
2019-03-18T03:16:28.065Z,8.83
2019-03-18T03:18:59.393Z,5.50
2019-03-18T03:21:30.678Z,6.27
2019-03-18T03:24:01.961Z,4.57
2019-03-18T03:26:33.235Z,5.73
2019-03-18T03:29:04.525Z,5.03
2019-03-18T03:31:35.826Z,5.47
2019-03-18T03:34:12.865Z,4.93
2019-03-18T03:36:42.847Z,5.07
2019-03-18T03:39:14.158Z,4.80
2019-03-18T03:41:45.474Z,4.90
2019-03-18T03:44:16.795Z,5.07
2019-03-18T03:46:48.130Z,4.70
2019-03-18T03:49:19.421Z,4.40
2019-03-18T03:51:50.706Z,4.23
2019-03-18T03:54:21.974Z,5.90
2019-03-18T03:56:53.634Z,5.73
2019-03-18T03:59:25.193Z,5.00
2019-03-18T04:01:56.493Z,5.40
2019-03-18T04:04:27.790Z,5.07
2019-03-18T04:06:59.129Z,6.37
2019-03-18T04:09:30.500Z,6.70
2019-03-18T04:12:01.884Z,6.17
2019-03-18T04:14:33.239Z,5.70
2019-03-18T04:17:04.538Z,6.00
2019-03-18T04:19:35.845Z,6.10
2019-03-18T04:22:07.157Z,7.93
2019-03-18T04:24:38.457Z,6.33
2019-03-18T04:27:09.719Z,7.30
2019-03-18T04:29:41.111Z,7.40
2019-03-18T04:32:12.404Z,7.40
2019-03-18T04:34:43.651Z,8.40
2019-03-18T04:37:14.930Z,7.70
2019-03-18T04:39:46.186Z,8.20
2019-03-18T04:42:17.480Z,9.27
2019-03-18T04:44:48.738Z,10.77
2019-03-18T04:47:20.001Z,11.63
2019-03-18T04:49:51.300Z,9.77
2019-03-18T04:52:22.574Z,14.50
2019-03-18T04:54:53.889Z,10.43
2019-03-18T04:57:25.185Z,11.10
2019-03-18T04:59:56.536Z,10.93
2019-03-18T05:02:27.846Z,11.37
2019-03-18T05:04:59.099Z,13.37
2019-03-18T05:07:30.348Z,12.30
2019-03-18T05:10:01.635Z,12.10
2019-03-18T05:12:32.893Z,12.23
2019-03-18T05:15:04.278Z,12.17
2019-03-18T05:17:35.688Z,15.43
2019-03-18T05:20:07.209Z,13.33
2019-03-18T05:22:38.518Z,12.63
2019-03-18T05:25:10.192Z,12.43
2019-03-18T05:27:41.517Z,15.10
2019-03-18T05:30:12.959Z,14.33
2019-03-18T05:32:44.285Z,14.10
2019-03-18T05:35:15.611Z,15.67
2019-03-18T05:37:46.895Z,13.83
2019-03-18T05:40:18.282Z,13.43
2019-03-18T05:42:49.598Z,13.77
2019-03-18T05:45:20.887Z,12.20
2019-03-18T05:47:52.160Z,12.30
2019-03-18T05:50:23.472Z,11.90
2019-03-18T05:52:54.763Z,14.27
2019-03-18T05:55:26.018Z,14.90
2019-03-18T05:57:57.327Z,12.70
2019-03-18T06:00:28.564Z,12.90
2019-03-18T06:02:59.892Z,12.17
2019-03-18T06:05:31.292Z,13.37
2019-03-18T06:08:02.573Z,12.90
2019-03-18T06:10:33.858Z,14.97
2019-03-18T06:13:05.186Z,14.10
2019-03-18T06:15:36.513Z,12.10
2019-03-18T06:18:07.828Z,11.73
2019-03-18T06:20:39.088Z,11.77
2019-03-18T06:23:10.373Z,11.43
2019-03-18T06:25:41.645Z,12.17
2019-03-18T06:28:12.878Z,9.83
2019-03-18T06:30:44.132Z,11.47
2019-03-18T06:33:15.457Z,10.67
2019-03-18T06:35:46.704Z,12.63
2019-03-18T06:38:18.006Z,12.53
2019-03-18T06:40:49.307Z,12.30
2019-03-18T06:43:20.668Z,12.87
2019-03-18T06:45:51.953Z,15.47
2019-03-18T06:48:23.270Z,13.30
2019-03-18T06:50:54.590Z,13.60
2019-03-18T06:53:25.928Z,14.83
2019-03-18T06:55:57.251Z,14.60
2019-03-18T06:58:28.566Z,10.90
2019-03-18T07:00:59.867Z,14.53
2019-03-18T07:03:31.170Z,12.20
2019-03-18T07:06:02.453Z,16.50
2019-03-18T07:08:33.711Z,12.40
2019-03-18T07:11:05.033Z,14.97
2019-03-18T07:13:36.326Z,16.83
2019-03-18T07:16:07.575Z,18.97
2019-03-18T07:18:38.910Z,14.23
2019-03-18T07:21:10.188Z,15.27
2019-03-18T07:23:42.564Z,15.30
2019-03-18T07:26:13.862Z,15.23
2019-03-18T07:28:45.177Z,13.17
2019-03-18T07:31:16.501Z,15.37
2019-03-18T07:33:47.796Z,13.60
2019-03-18T07:36:19.098Z,15.77
2019-03-18T07:38:50.373Z,15.53
2019-03-18T07:41:24.744Z,14.53
2019-03-18T07:43:56.022Z,14.70
2019-03-18T07:46:27.304Z,11.50
2019-03-18T07:48:58.649Z,9.93
2019-03-18T07:51:30.000Z,11.10
2019-03-18T07:54:01.264Z,8.50
2019-03-18T07:56:32.525Z,13.63
2019-03-18T07:59:03.821Z,9.00
2019-03-18T08:01:35.081Z,8.23
2019-03-18T08:04:06.428Z,11.33
2019-03-18T08:06:37.698Z,8.53
2019-03-18T08:09:10.199Z,9.47
2019-03-18T08:11:41.459Z,10.10
2019-03-18T08:14:12.710Z,9.50
2019-03-18T08:16:44.053Z,7.90
2019-03-18T08:19:15.318Z,7.33
2019-03-18T08:21:46.673Z,8.73
2019-03-18T08:24:17.945Z,8.23
2019-03-18T08:26:52.153Z,10.47
2019-03-18T08:29:23.456Z,10.60
2019-03-18T08:31:54.735Z,9.13
2019-03-18T08:34:26.018Z,10.60
2019-03-18T08:36:57.311Z,9.27
2019-03-18T08:39:28.562Z,9.13
2019-03-18T08:41:59.855Z,11.53
2019-03-18T08:44:31.127Z,9.33
2019-03-18T08:47:02.378Z,7.90
2019-03-18T08:49:33.748Z,7.63
2019-03-18T08:52:05.949Z,13.13
2019-03-18T08:54:37.214Z,9.27
2019-03-18T08:57:08.516Z,10.10
2019-03-18T08:59:39.778Z,9.10
2019-03-18T09:02:11.074Z,11.67
2019-03-18T09:04:42.334Z,12.03
2019-03-18T09:07:13.599Z,9.63
2019-03-18T09:09:44.872Z,9.57
2019-03-18T09:12:16.138Z,13.37
2019-03-18T09:14:47.455Z,9.40
2019-03-18T09:17:18.740Z,7.93
2019-03-18T09:19:50.021Z,8.87
2019-03-18T09:22:21.349Z,6.93
2019-03-18T09:24:52.641Z,7.80
2019-03-18T09:27:23.959Z,10.80
2019-03-18T09:29:55.289Z,8.10
2019-03-18T09:32:26.538Z,8.57
2019-03-18T09:34:57.848Z,8.50
2019-03-18T09:37:29.160Z,10.07
2019-03-18T09:40:00.495Z,8.43
2019-03-18T09:42:31.820Z,9.47
2019-03-18T09:45:03.153Z,10.57
2019-03-18T09:47:34.468Z,8.03
2019-03-18T09:50:08.871Z,9.50
2019-03-18T09:52:40.187Z,13.40
2019-03-18T09:55:11.500Z,7.27
2019-03-18T09:57:42.760Z,8.33
2019-03-18T10:00:14.478Z,10.40
2019-03-18T10:02:45.760Z,10.70
2019-03-18T10:05:17.077Z,10.53
2019-03-18T10:07:48.554Z,10.17
2019-03-18T10:10:19.851Z,8.90
2019-03-18T10:12:51.178Z,9.77
2019-03-18T10:15:22.468Z,10.73
2019-03-18T10:17:53.784Z,9.23
2019-03-18T10:20:25.068Z,10.70
2019-03-18T10:22:56.344Z,6.97
2019-03-18T10:25:27.638Z,9.07
2019-03-18T10:27:58.946Z,7.20
2019-03-18T10:30:30.214Z,7.20
2019-03-18T10:33:01.520Z,8.10
2019-03-18T10:35:32.824Z,8.67
2019-03-18T10:38:04.107Z,6.67
2019-03-18T10:40:35.459Z,8.03
2019-03-18T10:43:06.794Z,6.40
2019-03-18T10:45:38.217Z,7.90
2019-03-18T10:48:09.490Z,8.67
2019-03-18T10:50:40.829Z,8.00
2019-03-18T10:53:12.131Z,8.60
2019-03-18T10:55:43.403Z,5.67
2019-03-18T10:58:14.701Z,11.00
2019-03-18T11:00:47.282Z,9.53
2019-03-18T11:03:18.551Z,9.93
2019-03-18T11:05:49.807Z,8.53
2019-03-18T11:08:21.148Z,10.10
2019-03-18T11:10:52.504Z,10.60
2019-03-18T11:13:23.802Z,6.67
2019-03-18T11:15:55.178Z,6.50
2019-03-18T11:18:26.478Z,12.73
2019-03-18T11:20:57.790Z,7.00
2019-03-18T11:23:29.153Z,6.63
2019-03-18T11:26:00.450Z,8.63
2019-03-18T11:28:31.720Z,7.10
2019-03-18T11:31:02.972Z,9.67
2019-03-18T11:33:34.242Z,7.90
2019-03-18T11:36:05.600Z,8.73
2019-03-18T11:38:36.883Z,9.10
2019-03-18T11:41:08.190Z,7.47
2019-03-18T11:43:39.481Z,6.40
2019-03-18T11:46:10.773Z,6.93
2019-03-18T11:48:42.069Z,7.83
2019-03-18T11:51:13.405Z,8.20
2019-03-18T11:53:44.682Z,6.33
2019-03-18T11:56:15.953Z,4.00
2019-03-18T11:58:47.221Z,3.00
2019-03-18T12:01:18.512Z,4.00
2019-03-18T12:03:49.797Z,3.77
2019-03-18T12:06:21.112Z,4.20
2019-03-18T12:08:52.368Z,5.53
2019-03-18T12:11:23.677Z,3.60
2019-03-18T12:13:54.942Z,6.33
2019-03-18T12:16:26.250Z,5.23
2019-03-18T12:18:57.562Z,3.37
2019-03-18T12:21:28.887Z,7.17
2019-03-18T12:24:00.267Z,5.30
2019-03-18T12:26:31.572Z,5.03
2019-03-18T12:29:02.836Z,5.53
2019-03-18T12:31:34.218Z,8.97
2019-03-18T12:34:05.552Z,6.83
2019-03-18T12:36:36.827Z,8.27
2019-03-18T12:39:08.717Z,6.07
2019-03-18T12:41:40.074Z,7.10
2019-03-18T12:44:11.371Z,7.23
2019-03-18T12:46:42.648Z,9.73
2019-03-18T12:49:13.928Z,4.10
2019-03-18T12:51:45.222Z,7.70
2019-03-18T12:54:16.521Z,7.07
2019-03-18T12:56:47.828Z,8.53
2019-03-18T12:59:19.133Z,6.50
2019-03-18T13:01:50.543Z,6.37
2019-03-18T13:04:22.850Z,4.27
2019-03-18T13:06:54.201Z,5.03
2019-03-18T13:09:25.559Z,6.17
2019-03-18T13:11:56.860Z,7.37
2019-03-18T13:14:28.195Z,4.77
2019-03-18T13:16:59.467Z,5.30
2019-03-18T13:19:30.773Z,7.63
2019-03-18T13:22:02.092Z,7.77
2019-03-18T13:24:33.387Z,6.87
2019-03-18T13:27:04.685Z,7.93
2019-03-18T13:29:36.025Z,5.90
2019-03-18T13:32:07.316Z,6.67
2019-03-18T13:34:38.643Z,9.00
2019-03-18T13:37:09.916Z,6.67
2019-03-18T13:39:41.228Z,4.80
2019-03-18T13:42:12.529Z,5.40
2019-03-18T13:44:43.862Z,6.63
2019-03-18T13:47:15.168Z,5.37
2019-03-18T13:49:46.473Z,5.80
2019-03-18T13:52:17.820Z,7.80
2019-03-18T13:54:49.122Z,5.80
2019-03-18T13:57:20.435Z,5.10
2019-03-18T13:59:51.787Z,5.43
2019-03-18T14:02:23.058Z,8.03
2019-03-18T14:04:54.360Z,6.30
2019-03-18T14:07:25.703Z,6.83
2019-03-18T14:09:56.992Z,4.27
2019-03-18T14:12:28.278Z,6.20
2019-03-18T14:14:59.575Z,5.37
2019-03-18T14:17:30.876Z,3.70
2019-03-18T14:20:02.164Z,5.03
2019-03-18T14:22:33.482Z,5.17
2019-03-18T14:25:05.016Z,6.30
2019-03-18T14:27:36.296Z,3.30
2019-03-18T14:30:10.506Z,3.83
2019-03-18T14:32:41.797Z,6.13
2019-03-18T14:35:13.244Z,7.47
2019-03-18T14:37:44.618Z,4.00
2019-03-18T14:40:15.965Z,3.67
2019-03-18T14:42:47.267Z,7.80
2019-03-18T14:45:19.915Z,3.93
2019-03-18T14:47:51.210Z,3.93
2019-03-18T14:50:22.722Z,4.43
2019-03-18T14:52:54.013Z,3.27
2019-03-18T14:55:25.326Z,6.20
2019-03-18T14:57:59.349Z,4.83
2019-03-18T15:00:30.693Z,5.90
2019-03-18T15:03:01.967Z,5.77
2019-03-18T15:05:33.340Z,4.20
2019-03-18T15:08:04.607Z,7.80
2019-03-18T15:10:35.890Z,6.27
2019-03-18T15:13:07.219Z,8.80
2019-03-18T15:15:38.491Z,4.83
2019-03-18T15:18:09.806Z,5.13
2019-03-18T15:20:41.074Z,4.13
2019-03-18T15:23:12.415Z,4.50
2019-03-18T15:25:43.740Z,4.27
2019-03-18T15:28:15.030Z,5.53
2019-03-18T15:30:46.329Z,4.70
2019-03-18T15:33:17.629Z,5.77
2019-03-18T15:35:48.891Z,6.53
2019-03-18T15:38:20.168Z,3.93
2019-03-18T15:40:51.466Z,10.80
2019-03-18T15:43:22.804Z,5.37
2019-03-18T15:45:54.140Z,6.60
2019-03-18T15:48:25.454Z,8.77
2019-03-18T15:50:56.734Z,7.57
2019-03-18T15:53:28.028Z,9.20
2019-03-18T15:55:59.331Z,6.43
2019-03-18T15:58:30.589Z,7.77
2019-03-18T16:01:01.862Z,8.70
2019-03-18T16:03:33.117Z,6.40
2019-03-18T16:06:04.405Z,5.77
2019-03-18T16:08:35.772Z,12.03
2019-03-18T16:11:07.028Z,6.43
2019-03-18T16:13:38.299Z,5.63
2019-03-18T16:16:09.603Z,9.03
2019-03-18T16:18:40.862Z,8.77
2019-03-18T16:21:12.189Z,5.80
2019-03-18T16:23:43.460Z,7.57
2019-03-18T16:26:14.925Z,6.93
2019-03-18T16:28:46.242Z,9.97
2019-03-18T16:31:17.554Z,8.93
2019-03-18T16:33:48.817Z,7.57
2019-03-18T16:36:20.105Z,5.57
2019-03-18T16:38:51.443Z,7.83
2019-03-18T16:41:22.720Z,4.43
2019-03-18T16:43:54.007Z,8.73
2019-03-18T16:46:25.305Z,9.23
2019-03-18T16:48:56.593Z,4.43
2019-03-18T16:51:27.912Z,9.47
2019-03-18T16:53:59.185Z,9.10
2019-03-18T16:56:30.526Z,6.40
2019-03-18T16:59:01.865Z,8.77
2019-03-18T17:01:33.185Z,8.27
2019-03-18T17:04:04.496Z,10.20
2019-03-18T17:06:37.999Z,5.80
2019-03-18T17:09:09.203Z,8.30
2019-03-18T17:11:40.527Z,8.50
2019-03-18T17:14:11.805Z,9.27
2019-03-18T17:16:43.062Z,6.60
2019-03-18T17:19:14.365Z,5.60
2019-03-18T17:21:45.651Z,5.90
2019-03-18T17:24:16.935Z,4.70
2019-03-18T17:26:48.194Z,6.20
2019-03-18T17:29:19.547Z,4.37
2019-03-18T17:31:50.844Z,8.37
2019-03-18T17:34:22.145Z,4.20
2019-03-18T17:36:53.490Z,7.63
2019-03-18T17:39:24.813Z,5.03
2019-03-18T17:41:56.155Z,8.10
2019-03-18T17:44:27.488Z,5.90
2019-03-18T17:46:58.836Z,3.20
2019-03-18T17:49:30.141Z,7.50
2019-03-18T17:52:01.461Z,6.73
2019-03-18T17:54:32.786Z,3.47
2019-03-18T17:57:07.638Z,8.37
2019-03-18T17:59:37.052Z,7.20
2019-03-18T18:02:08.414Z,6.70
2019-03-18T18:04:39.716Z,4.30
2019-03-18T18:07:11.059Z,6.30
2019-03-18T18:09:42.350Z,7.63
2019-03-18T18:12:13.672Z,6.07
2019-03-18T18:14:44.996Z,4.90
2019-03-18T18:17:16.265Z,6.83
2019-03-18T18:19:47.540Z,5.27
2019-03-18T18:22:18.876Z,6.63
2019-03-18T18:24:50.123Z,5.33
2019-03-18T18:27:21.437Z,5.23
2019-03-18T18:29:52.742Z,7.00
2019-03-18T18:32:24.021Z,6.70
2019-03-18T18:34:55.401Z,7.37
2019-03-18T18:37:26.823Z,4.60
2019-03-18T18:39:58.086Z,6.07
2019-03-18T18:42:29.405Z,6.27
2019-03-18T18:45:00.703Z,5.70
2019-03-18T18:47:32.009Z,9.40
2019-03-18T18:50:03.361Z,5.73
2019-03-18T18:52:34.645Z,7.23
2019-03-18T18:55:06.276Z,6.07
2019-03-18T18:57:37.580Z,9.90
2019-03-18T19:00:11.699Z,12.57
2019-03-18T19:02:43.034Z,8.27
2019-03-18T19:05:14.998Z,5.80
2019-03-18T19:07:46.412Z,7.17
2019-03-18T19:10:17.756Z,9.60
2019-03-18T19:12:49.116Z,6.17
2019-03-18T19:15:21.473Z,9.03
2019-03-18T19:17:52.756Z,7.07
2019-03-18T19:20:24.130Z,10.33
2019-03-18T19:22:55.388Z,6.97
2019-03-18T19:25:26.668Z,3.83
2019-03-18T19:27:58.021Z,5.70
2019-03-18T19:30:29.278Z,7.70
2019-03-18T19:33:00.548Z,7.77
2019-03-18T19:35:31.855Z,6.83
2019-03-18T19:38:03.176Z,8.20
2019-03-18T19:40:34.471Z,6.80
2019-03-18T19:43:05.789Z,5.57
2019-03-18T19:45:37.178Z,7.47
2019-03-18T19:48:08.429Z,8.27
2019-03-18T19:50:39.733Z,8.07
2019-03-18T19:53:11.057Z,8.30
2019-03-18T19:55:42.355Z,12.87
2019-03-18T19:58:13.666Z,9.60
2019-03-18T20:00:44.993Z,4.70
2019-03-18T20:03:16.391Z,9.87
2019-03-18T20:05:47.656Z,6.40
2019-03-18T20:08:19.015Z,7.67
2019-03-18T20:10:50.332Z,8.27
2019-03-18T20:13:21.616Z,6.37
2019-03-18T20:15:52.989Z,8.27
2019-03-18T20:18:24.281Z,8.50
2019-03-18T20:20:56.984Z,10.57
2019-03-18T20:23:28.393Z,9.73
2019-03-18T20:25:59.696Z,7.47
2019-03-18T20:28:31.030Z,7.73
2019-03-18T20:31:02.457Z,9.60
2019-03-18T20:33:33.771Z,9.00
2019-03-18T20:36:05.217Z,8.90
2019-03-18T20:38:36.601Z,5.40
2019-03-18T20:41:07.960Z,9.50
2019-03-18T20:43:39.371Z,9.00
2019-03-18T20:46:10.767Z,6.90
2019-03-18T20:48:42.091Z,10.50
2019-03-18T20:51:13.447Z,7.33
2019-03-18T20:53:44.731Z,7.90
2019-03-18T20:56:18.813Z,11.23
2019-03-18T20:58:50.104Z,7.83
2019-03-18T21:01:21.420Z,6.03
2019-03-18T21:03:52.738Z,6.53
2019-03-18T21:06:24.050Z,5.50
2019-03-18T21:08:55.337Z,7.33
2019-03-18T21:11:26.624Z,8.80
2019-03-18T21:13:57.933Z,6.83
2019-03-18T21:16:29.223Z,8.13
2019-03-18T21:19:00.525Z,6.83
2019-03-18T21:21:31.797Z,9.17
2019-03-18T21:24:03.077Z,7.13
2019-03-18T21:26:34.504Z,8.67
2019-03-18T21:29:05.869Z,7.60
2019-03-18T21:31:37.182Z,7.20
2019-03-18T21:34:08.495Z,8.53
2019-03-18T21:36:39.783Z,6.73
2019-03-18T21:39:11.862Z,7.17
2019-03-18T21:41:43.211Z,7.97
2019-03-18T21:44:14.459Z,7.23
2019-03-18T21:46:45.787Z,7.50
2019-03-18T21:49:17.966Z,8.60
2019-03-18T21:51:49.270Z,13.60
2019-03-18T21:54:20.570Z,8.83
2019-03-18T21:56:51.861Z,11.40
2019-03-18T21:59:23.174Z,9.40
2019-03-18T22:01:54.455Z,9.93
2019-03-18T22:04:25.803Z,9.97
2019-03-18T22:06:57.153Z,10.10
2019-03-18T22:09:28.462Z,11.40
2019-03-18T22:11:59.812Z,12.30
2019-03-18T22:14:31.137Z,13.43
2019-03-18T22:17:02.423Z,7.40
2019-03-18T22:19:33.720Z,8.27
2019-03-18T22:22:05.052Z,12.43
2019-03-18T22:24:44.739Z,9.00
2019-03-18T22:27:09.297Z,10.57
2019-03-18T22:29:40.595Z,7.80
2019-03-18T22:32:11.897Z,11.07
2019-03-18T22:34:43.268Z,10.90
2019-03-18T22:37:14.583Z,11.53
2019-03-18T22:39:45.887Z,12.13
2019-03-18T22:42:17.232Z,9.03
2019-03-18T22:44:48.708Z,6.50
2019-03-18T22:47:19.974Z,9.67
2019-03-18T22:49:51.280Z,12.20
2019-03-18T22:52:22.581Z,7.60
2019-03-18T22:54:56.124Z,6.93
2019-03-18T22:57:26.889Z,11.17
2019-03-18T22:59:58.126Z,9.83
2019-03-18T23:02:29.452Z,6.77
2019-03-18T23:05:00.723Z,12.77
2019-03-18T23:07:32.043Z,6.80
2019-03-18T23:10:03.728Z,7.80
2019-03-18T23:12:35.014Z,9.23
2019-03-18T23:15:06.424Z,8.53
2019-03-18T23:17:37.738Z,11.13
2019-03-18T23:20:09.153Z,12.37
2019-03-18T23:22:40.451Z,11.23
2019-03-18T23:25:11.910Z,11.57
2019-03-18T23:27:43.174Z,8.30
2019-03-18T23:30:14.507Z,8.13
2019-03-18T23:32:45.787Z,7.17
2019-03-18T23:35:17.075Z,10.97
2019-03-18T23:37:48.416Z,10.50
2019-03-18T23:40:19.706Z,12.23
2019-03-18T23:42:51.008Z,11.00
2019-03-18T23:45:22.303Z,10.73
2019-03-18T23:47:53.763Z,11.43
2019-03-18T23:50:25.078Z,13.17
2019-03-18T23:52:56.387Z,12.00
2019-03-18T23:55:27.701Z,10.03
2019-03-18T23:57:58.988Z,10.53
